Terminal Aerodrome Forecast
Issued by NWS Omaha/Valley, NE

Home | Current Version | Previous Version | Text Only | Print | Product List | Glossary On
Versions: 1 2 3 4 5 6 7 8 9 10 11 12 13 14 15 16 17 18 19 20 21
000
FTUS43 KOAX 010320 AAA
TAFOMA
TAF AMD
KOMA 010320Z 0103/0124 08015KT 5SM -RA BR OVC010
     FM010600 03011KT 2SM -RA BR OVC003
     FM011500 36015KT 4SM -DZ BR OVC008
     FM011900 36013KT 4SM -RA OVC015=

USA.gov is the U.S. government's official web portal to all federal, state and local government web resources and services.